Cfl Performer — PHLY — position and weather

sailwx.info

Track history (hours):
 
Tides and Currents Weather Stations Pressure Air Temp Water Temp Dewpoint Dewpoint Depression Visibility Wind Speed Wind Dir Waves Ship Positions

Cfl Performer

Last reported at 2014-Aug-21 03:30 UTC. Time now 2014-Aug-27 19:17 UTC.
Position N 49°22' W 065°60'.

Length 117 m; draft 3.9 m.

Type: Cargo ship. MMSI: 244989000.

Date/timePositionNaut miles runAvg speedWind from/ knotsBaromVisibWave heightAir tempDewpointWater temp
2014-Aug-21 03:30N 49°22' W 065°60'1010.8
2014-Aug-21 02:33N 49°20' W 066°15'1111.0
2014-Aug-21 01:33N 49°17' W 066°31'1111.4
2014-Aug-21 00:33N 49°14' W 066°48'1211.6
2014-Aug-20 23:33N 49°10' W 067°05'1111.2
2014-Aug-20 22:33N 49°07' W 067°21'1110.8
2014-Aug-20 21:33N 49°02' W 067°36'1211.7
2014-Aug-20 20:33N 48°56' W 067°52'1211.8
2014-Aug-20 19:33N 48°50' W 068°07'1111.0
2014-Aug-20 18:33N 48°44' W 068°21'1211.7
2014-Aug-20 17:33N 48°37' W 068°36'1211.8
2014-Aug-20 16:32N 48°31' W 068°51'1411.5
2014-Aug-20 15:18N 48°22' W 069°08'810.5
2014-Aug-20 14:33N 48°19' W 069°19'9 8.5
2014-Aug-20 13:33N 48°13' W 069°28'1010.0
2014-Aug-20 12:33N 48°05' W 069°35'1211.7
2014-Aug-20 11:33N 47°54' W 069°44'1312.7
2014-Aug-20 10:33N 47°44' W 069°54'1212.2
2014-Aug-20 09:32N 47°34' W 070°06'1312.9
2014-Aug-20 08:33N 47°26' W 070°21'1212.4
2014-Aug-20 07:33N 47°16' W 070°32'1110.9
2014-Aug-20 06:33N 47°08' W 070°41'1010.2
2014-Aug-20 05:33N 46°59' W 070°49'9 9.3
2014-Aug-20 04:33N 46°52' W 070°58'9 9.4
2014-Aug-20 03:33N 46°50' W 071°11'9 9.4
2014-Aug-20 02:33N 46°44' W 071°22'1312.9
2014-Aug-20 01:33N 46°39' W 071°39'1211.9
2014-Aug-20 00:33N 46°38' W 071°56'1313.3
2014-Aug-19 23:33N 46°31' W 072°13'18 2.5
2014-Aug-19 16:32N 46°20' W 072°33'0 0.0
2014-Aug-19 15:32N 46°20' W 072°33'0 0.0
2014-Aug-19 14:32N 46°20' W 072°33'0 0.0
2014-Aug-19 13:32N 46°20' W 072°33'0 0.0
2014-Aug-19 12:32N 46°20' W 072°33'0 0.0
2014-Aug-19 11:32N 46°20' W 072°33'0 0.0
2014-Aug-19 10:32N 46°20' W 072°33'0 0.0
2014-Aug-19 09:32N 46°20' W 072°33'0 0.0
2014-Aug-19 08:32N 46°20' W 072°33'0 0.0
2014-Aug-19 07:32N 46°20' W 072°33'0 0.0
2014-Aug-19 06:32N 46°20' W 072°33'0 0.0
2014-Aug-19 05:32N 46°20' W 072°33'0 0.0
2014-Aug-19 04:32N 46°20' W 072°33'0 0.0
2014-Aug-19 03:32N 46°20' W 072°33'0 0.0
2014-Aug-19 02:32N 46°20' W 072°33'0 0.0
2014-Aug-19 01:32N 46°20' W 072°33'0 0.0
2014-Aug-19 00:32N 46°20' W 072°33'0 0.0
2014-Aug-18 23:32N 46°20' W 072°33'0 0.0
2014-Aug-18 22:32N 46°20' W 072°33'0 0.0
2014-Aug-18 21:32N 46°20' W 072°33'0 0.0
2014-Aug-18 20:32N 46°20' W 072°33'0 0.0
2014-Aug-18 19:32N 46°20' W 072°33'0 0.0
2014-Aug-18 18:32N 46°20' W 072°33'0 0.0
2014-Aug-18 17:32N 46°20' W 072°33'0 0.0
2014-Aug-18 16:32N 46°20' W 072°33'0 0.0
2014-Aug-18 15:26N 46°20' W 072°33'0 0.0
2014-Aug-18 14:32N 46°20' W 072°33'0 0.0
2014-Aug-18 13:32N 46°20' W 072°33'0 0.0
2014-Aug-18 12:32N 46°20' W 072°33'0 0.0
2014-Aug-18 11:32N 46°20' W 072°33'0 0.0
2014-Aug-18 10:32N 46°20' W 072°33'0 0.0
2014-Aug-18 09:32N 46°20' W 072°33'0 0.0
2014-Aug-18 08:32N 46°20' W 072°33'0 0.0
2014-Aug-18 07:32N 46°20' W 072°33'0 0.0
2014-Aug-18 06:26N 46°20' W 072°33'0 0.0
2014-Aug-18 05:32N 46°20' W 072°33'0 0.0
2014-Aug-18 04:26N 46°20' W 072°33'0 0.0
2014-Aug-18 03:32N 46°20' W 072°33'0 0.0
2014-Aug-18 02:32N 46°20' W 072°33'0 0.0
2014-Aug-18 01:32N 46°20' W 072°33'0 0.0
2014-Aug-18 00:32N 46°20' W 072°33'27 4.5
2014-Aug-17 18:33N 46°35' W 072°01'9 9.0
2014-Aug-17 17:33N 46°41' W 071°50'9 9.4
2014-Aug-17 16:33N 46°40' W 071°37'1111.5
2014-Aug-17 15:33N 46°44' W 071°21'1110.6
2014-Aug-17 14:33N 46°51' W 071°09'1111.3
2014-Aug-17 13:33N 46°55' W 070°53'1211.6
2014-Aug-17 12:33N 47°04' W 070°44'1212.0
2014-Aug-17 11:33N 47°15' W 070°34'1111.4
2014-Aug-17 10:33N 47°25' W 070°27'9 8.9
2014-Aug-17 09:33N 47°28' W 070°15'8 7.7
2014-Aug-17 08:33N 47°34' W 070°07'9 8.7
2014-Aug-17 07:33N 47°41' W 069°59'53 8.5
2014-Aug-17 01:19N 48°24' W 069°14'911.6
2014-Aug-17 00:33N 48°30' W 069°04'1111.2
2014-Aug-16 23:33N 48°36' W 068°50'1010.0
2014-Aug-16 22:33N 48°41' W 068°37'10 9.6
2014-Aug-16 21:33N 48°47' W 068°25'1110.9
2014-Aug-16 20:32N 48°53' W 068°10'1110.8
2014-Aug-16 19:33N 48°58' W 067°57'10 9.9
2014-Aug-16 18:33N 49°04' W 067°44'10 9.8
2014-Aug-16 17:33N 49°10' W 067°32'1110.6
2014-Aug-16 16:33N 49°15' W 067°18'1110.5
2014-Aug-16 15:33N 49°20' W 067°04'9 9.2
2014-Aug-16 14:33N 49°24' W 066°51'9 8.7
2014-Aug-16 13:33N 49°28' W 066°39'9 8.9
2014-Aug-16 12:30N 49°32' W 066°26'9 9.3
2014-Aug-16 11:33N 49°35' W 066°14'12 9.7
2014-Aug-16 10:20N 49°40' W 065°57'11 9.1
2014-Aug-16 09:06N 49°44' W 065°41'67 8.7
2014-Aug-16 01:26N 50°05' W 064°02'7 8.5
2014-Aug-16 00:33N 50°04' W 063°50'9 9.4
2014-Aug-15 23:33N 50°04' W 063°36'1010.1
2014-Aug-15 22:33N 50°03' W 063°20'1010.5
2014-Aug-15 21:33N 50°02' W 063°04'1110.0
2014-Aug-15 20:30N 50°01' W 062°48'1110.0
2014-Aug-15 19:22N 49°60' W 062°30'  
Track history (hours):
 
Tides and Currents Weather Stations Pressure Air Temp Water Temp Dewpoint Dewpoint Depression Visibility Wind Speed Wind Dir Waves Ship Positions

Cfl Performer

Last reported at 2014-Aug-21 03:30 UTC. Time now 2014-Aug-27 19:17 UTC.
Position N 49°22' W 065°60'.

Length 117 m; draft 3.9 m.

Type: Cargo ship. MMSI: 244989000.

Date/timePositionNaut miles runAvg speedWind from/ knotsBaromVisibWave heightAir tempDewpointWater temp
2014-Aug-21 03:30N 49°22' W 065°60'1010.8
2014-Aug-21 02:33N 49°20' W 066°15'1111.0
2014-Aug-21 01:33N 49°17' W 066°31'1111.4
2014-Aug-21 00:33N 49°14' W 066°48'1211.6
2014-Aug-20 23:33N 49°10' W 067°05'1111.2
2014-Aug-20 22:33N 49°07' W 067°21'1110.8
2014-Aug-20 21:33N 49°02' W 067°36'1211.7
2014-Aug-20 20:33N 48°56' W 067°52'1211.8
2014-Aug-20 19:33N 48°50' W 068°07'1111.0
2014-Aug-20 18:33N 48°44' W 068°21'1211.7
2014-Aug-20 17:33N 48°37' W 068°36'1211.8
2014-Aug-20 16:32N 48°31' W 068°51'1411.5
2014-Aug-20 15:18N 48°22' W 069°08'810.5
2014-Aug-20 14:33N 48°19' W 069°19'9 8.5
2014-Aug-20 13:33N 48°13' W 069°28'1010.0
2014-Aug-20 12:33N 48°05' W 069°35'1211.7
2014-Aug-20 11:33N 47°54' W 069°44'1312.7
2014-Aug-20 10:33N 47°44' W 069°54'1212.2
2014-Aug-20 09:32N 47°34' W 070°06'1312.9
2014-Aug-20 08:33N 47°26' W 070°21'1212.4
2014-Aug-20 07:33N 47°16' W 070°32'1110.9
2014-Aug-20 06:33N 47°08' W 070°41'1010.2
2014-Aug-20 05:33N 46°59' W 070°49'9 9.3
2014-Aug-20 04:33N 46°52' W 070°58'9 9.4
2014-Aug-20 03:33N 46°50' W 071°11'9 9.4
2014-Aug-20 02:33N 46°44' W 071°22'1312.9
2014-Aug-20 01:33N 46°39' W 071°39'1211.9
2014-Aug-20 00:33N 46°38' W 071°56'1313.3
2014-Aug-19 23:33N 46°31' W 072°13'18 2.5
2014-Aug-19 16:32N 46°20' W 072°33'0 0.0
2014-Aug-19 15:32N 46°20' W 072°33'0 0.0
2014-Aug-19 14:32N 46°20' W 072°33'0 0.0
2014-Aug-19 13:32N 46°20' W 072°33'0 0.0
2014-Aug-19 12:32N 46°20' W 072°33'0 0.0
2014-Aug-19 11:32N 46°20' W 072°33'0 0.0
2014-Aug-19 10:32N 46°20' W 072°33'0 0.0
2014-Aug-19 09:32N 46°20' W 072°33'0 0.0
2014-Aug-19 08:32N 46°20' W 072°33'0 0.0
2014-Aug-19 07:32N 46°20' W 072°33'0 0.0
2014-Aug-19 06:32N 46°20' W 072°33'0 0.0
2014-Aug-19 05:32N 46°20' W 072°33'0 0.0
2014-Aug-19 04:32N 46°20' W 072°33'0 0.0
2014-Aug-19 03:32N 46°20' W 072°33'0 0.0
2014-Aug-19 02:32N 46°20' W 072°33'0 0.0
2014-Aug-19 01:32N 46°20' W 072°33'0 0.0
2014-Aug-19 00:32N 46°20' W 072°33'0 0.0
2014-Aug-18 23:32N 46°20' W 072°33'0 0.0
2014-Aug-18 22:32N 46°20' W 072°33'0 0.0
2014-Aug-18 21:32N 46°20' W 072°33'0 0.0
2014-Aug-18 20:32N 46°20' W 072°33'0 0.0
2014-Aug-18 19:32N 46°20' W 072°33'0 0.0
2014-Aug-18 18:32N 46°20' W 072°33'0 0.0
2014-Aug-18 17:32N 46°20' W 072°33'0 0.0
2014-Aug-18 16:32N 46°20' W 072°33'0 0.0
2014-Aug-18 15:26N 46°20' W 072°33'0 0.0
2014-Aug-18 14:32N 46°20' W 072°33'0 0.0
2014-Aug-18 13:32N 46°20' W 072°33'0 0.0
2014-Aug-18 12:32N 46°20' W 072°33'0 0.0
2014-Aug-18 11:32N 46°20' W 072°33'0 0.0
2014-Aug-18 10:32N 46°20' W 072°33'0 0.0
2014-Aug-18 09:32N 46°20' W 072°33'0 0.0
2014-Aug-18 08:32N 46°20' W 072°33'0 0.0
2014-Aug-18 07:32N 46°20' W 072°33'0 0.0
2014-Aug-18 06:26N 46°20' W 072°33'0 0.0
2014-Aug-18 05:32N 46°20' W 072°33'0 0.0
2014-Aug-18 04:26N 46°20' W 072°33'0 0.0
2014-Aug-18 03:32N 46°20' W 072°33'0 0.0
2014-Aug-18 02:32N 46°20' W 072°33'0 0.0
2014-Aug-18 01:32N 46°20' W 072°33'0 0.0
2014-Aug-18 00:32N 46°20' W 072°33'27 4.5
2014-Aug-17 18:33N 46°35' W 072°01'9 9.0
2014-Aug-17 17:33N 46°41' W 071°50'9 9.4
2014-Aug-17 16:33N 46°40' W 071°37'1111.5
2014-Aug-17 15:33N 46°44' W 071°21'1110.6
2014-Aug-17 14:33N 46°51' W 071°09'1111.3
2014-Aug-17 13:33N 46°55' W 070°53'1211.6
2014-Aug-17 12:33N 47°04' W 070°44'1212.0
2014-Aug-17 11:33N 47°15' W 070°34'1111.4
2014-Aug-17 10:33N 47°25' W 070°27'9 8.9
2014-Aug-17 09:33N 47°28' W 070°15'8 7.7
2014-Aug-17 08:33N 47°34' W 070°07'9 8.7
2014-Aug-17 07:33N 47°41' W 069°59'53 8.5
2014-Aug-17 01:19N 48°24' W 069°14'911.6
2014-Aug-17 00:33N 48°30' W 069°04'1111.2
2014-Aug-16 23:33N 48°36' W 068°50'1010.0
2014-Aug-16 22:33N 48°41' W 068°37'10 9.6
2014-Aug-16 21:33N 48°47' W 068°25'1110.9
2014-Aug-16 20:32N 48°53' W 068°10'1110.8
2014-Aug-16 19:33N 48°58' W 067°57'10 9.9
2014-Aug-16 18:33N 49°04' W 067°44'10 9.8
2014-Aug-16 17:33N 49°10' W 067°32'1110.6
2014-Aug-16 16:33N 49°15' W 067°18'1110.5
2014-Aug-16 15:33N 49°20' W 067°04'9 9.2
2014-Aug-16 14:33N 49°24' W 066°51'9 8.7
2014-Aug-16 13:33N 49°28' W 066°39'9 8.9
2014-Aug-16 12:30N 49°32' W 066°26'9 9.3
2014-Aug-16 11:33N 49°35' W 066°14'12 9.7
2014-Aug-16 10:20N 49°40' W 065°57'11 9.1
2014-Aug-16 09:06N 49°44' W 065°41'67 8.7
2014-Aug-16 01:26N 50°05' W 064°02'7 8.5
2014-Aug-16 00:33N 50°04' W 063°50'9 9.4
2014-Aug-15 23:33N 50°04' W 063°36'1010.1
2014-Aug-15 22:33N 50°03' W 063°20'1010.5
2014-Aug-15 21:33N 50°02' W 063°04'1110.0
2014-Aug-15 20:30N 50°01' W 062°48'1110.0
2014-Aug-15 19:22N 49°60' W 062°30'  

Dump ship's entire track history